Sevierville, TN

02:50 AM EDT on Octòbre 31, 2014 (GMT -0400)
Laurel Highlands | Change Station
CLOSE
Current Station
Personal Weather Stations
Location: Gatlinburg, TN
Elevation: 1962 ft
Nearby Weather Stations

Elev 1962 ft 35.77 °N, 83.32 °W | Updated 3 minutes ago

Parcialament nivolós
Parcialament nivolós
39.7 °F
Feels Like 40 °F
N
0.0
vent Variadís vent from Oèst

Auèi
High -- | Low -- °F
--% Chance of Precip.
Yesterday
High -- | Low -- °F
Precip. -- Dins
7:55 AM 6:39 PM
First Quarter, 52% visible
Pression 30.00 Dins
Visibilitat 10.0 miles
Nivols Nivols escampilhats 25000 ft
Vent freg 40 °F
Punt de ròs 39 °F
Imor 99%
Rainfall 0.00 Dins
Snow Depth Not available.
UV 0 out of 12
Pollen .40 out of 12
Air Quality Not available.
Flu Activity Not available.
METAR KTYS 310553Z 00000KT 10SM SCT250 06/04 A3000 RMK AO2 SLP159 T00610044 10122 20061 58002

More Conditions Fewer Conditions

Pression 30.00 Dins
Visibilitat 10.0 miles
Nivols Nivols escampilhats 25000 ft
Vent freg 40 °F
Punt de ròs 39 °F
Imor 99%
Rainfall 0.00 Dins
Snow Depth Not available.
UV 0 out of 12
Pollen .40 out of 12
Air Quality Not available.
Flu Activity Not available.
METAR KTYS 310553Z 00000KT 10SM SCT250 06/04 A3000 RMK AO2 SLP159 T00610044 10122 20061 58002

More Conditions Fewer Conditions

10-Day Weather Forecast

Almanac

Astronomy

Oct. 31, 2014 Rise Set
Actual Time
Civil Twilight
Nautical Twilight
Astronomical Twilight
Luna
Length Of Visible Light
Length of Day
Tomorrow will be .
, % of the Moon is Illuminated

Today's Extremes

State Highs State Lows

Community

WunderPhotos

Upload Photos

1,766,571 photos uploaded!

WunderBlogs® & News

Nearby

Air Quality

  Air Quality AQ Index Pollutant
Not available.

Snow Depth

Station Depth Elevation

Earthquake Activity

Vila Distance Mag. Time & Date
Minimum magnitude displayed is 2.5.

Coastal Water Temperatures

Luòc Temperatura

Nearby Weather Stations